sensor_id;sensor_type;location;lat;lon;timestamp;pressure;altitude;pressure_sealevel;temperature;humidity
63343;BME280;49465;57.664;39.686;2023-01-29T00:00:25;100475.34;;;-1.75;59.71
63343;BME280;49465;57.664;39.686;2023-01-29T00:02:54;100472.28;;;-2.11;60.95
63343;BME280;49465;57.664;39.686;2023-01-29T00:05:23;100478.19;;;-2.03;60.72
63343;BME280;49465;57.664;39.686;2023-01-29T00:07:50;100470.56;;;-2.09;60.69
63343;BME280;49465;57.664;39.686;2023-01-29T00:10:22;100470.94;;;-1.63;60.01
63343;BME280;49465;57.664;39.686;2023-01-29T00:12:48;100472.53;;;-1.52;59.57
63343;BME280;49465;57.664;39.686;2023-01-29T00:15:20;100473.38;;;-1.53;59.17
63343;BME280;49465;57.664;39.686;2023-01-29T00:17:48;100471.03;;;-1.72;59.66
63343;BME280;49465;57.664;39.686;2023-01-29T00:20:18;100473.00;;;-1.99;60.82
63343;BME280;49465;57.664;39.686;2023-01-29T00:22:50;100472.28;;;-1.32;58.79
63343;BME280;49465;57.664;39.686;2023-01-29T00:25:19;100461.50;;;-1.62;59.56
63343;BME280;49465;57.664;39.686;2023-01-29T00:27:51;100453.88;;;-1.73;59.92
63343;BME280;49465;57.664;39.686;2023-01-29T00:30:26;100448.03;;;-1.84;60.14
63343;BME280;49465;57.664;39.686;2023-01-29T00:32:56;100453.22;;;-1.90;59.63
63343;BME280;49465;57.664;39.686;2023-01-29T00:35:28;100435.34;;;-2.00;60.00
63343;BME280;49465;57.664;39.686;2023-01-29T00:37:58;100441.66;;;-1.54;59.57
63343;BME280;49465;57.664;39.686;2023-01-29T00:40:27;100431.88;;;-1.99;60.35
63343;BME280;49465;57.664;39.686;2023-01-29T00:43:16;100437.00;;;-1.24;58.51
63343;BME280;49465;57.664;39.686;2023-01-29T00:46:01;100432.47;;;-1.72;59.24
63343;BME280;49465;57.664;39.686;2023-01-29T00:48:30;100425.41;;;-1.54;59.44
63343;BME280;49465;57.664;39.686;2023-01-29T00:51:05;100422.41;;;-1.92;60.84
63343;BME280;49465;57.664;39.686;2023-01-29T00:53:34;100421.69;;;-2.05;60.83
63343;BME280;49465;57.664;39.686;2023-01-29T00:56:03;100426.44;;;-1.71;59.81
63343;BME280;49465;57.664;39.686;2023-01-29T00:58:32;100414.81;;;-2.04;59.86
63343;BME280;49465;57.664;39.686;2023-01-29T01:01:04;100415.00;;;-2.21;60.00
63343;BME280;49465;57.664;39.686;2023-01-29T01:03:32;100419.03;;;-2.00;59.95
63343;BME280;49465;57.664;39.686;2023-01-29T01:06:12;100413.81;;;-1.89;59.48
63343;BME280;49465;57.664;39.686;2023-01-29T01:08:38;100413.66;;;-1.77;59.45
63343;BME280;49465;57.664;39.686;2023-01-29T01:11:28;100406.00;;;-1.80;59.97
63343;BME280;49465;57.664;39.686;2023-01-29T01:14:02;100395.75;;;-1.85;59.59
63343;BME280;49465;57.664;39.686;2023-01-29T01:16:30;100405.84;;;-1.68;59.38
63343;BME280;49465;57.664;39.686;2023-01-29T01:19:08;100397.84;;;-1.45;58.94
63343;BME280;49465;57.664;39.686;2023-01-29T01:21:35;100394.09;;;-1.90;59.62
63343;BME280;49465;57.664;39.686;2023-01-29T01:24:01;100391.53;;;-1.90;59.87
63343;BME280;49465;57.664;39.686;2023-01-29T01:26:31;100393.56;;;-1.47;58.55
63343;BME280;49465;57.664;39.686;2023-01-29T01:29:00;100391.09;;;-1.55;58.80
63343;BME280;49465;57.664;39.686;2023-01-29T01:31:30;100391.50;;;-1.89;59.55
63343;BME280;49465;57.664;39.686;2023-01-29T01:33:57;100383.84;;;-1.25;58.50
63343;BME280;49465;57.664;39.686;2023-01-29T01:36:28;100377.81;;;-1.88;59.04
63343;BME280;49465;57.664;39.686;2023-01-29T01:38:57;100377.00;;;-1.91;59.46
63343;BME280;49465;57.664;39.686;2023-01-29T01:41:26;100383.41;;;-2.29;59.97
63343;BME280;49465;57.664;39.686;2023-01-29T01:43:58;100381.72;;;-1.57;58.43
63343;BME280;49465;57.664;39.686;2023-01-29T01:46:32;100375.41;;;-2.02;59.67
63343;BME280;49465;57.664;39.686;2023-01-29T01:49:09;100376.81;;;-1.74;59.02
63343;BME280;49465;57.664;39.686;2023-01-29T01:51:45;100383.13;;;-2.05;59.77
63343;BME280;49465;57.664;39.686;2023-01-29T01:54:17;100384.72;;;-1.93;59.37
63343;BME280;49465;57.664;39.686;2023-01-29T01:56:53;100384.00;;;-2.06;60.17
63343;BME280;49465;57.664;39.686;2023-01-29T01:59:30;100394.09;;;-1.90;59.16
63343;BME280;49465;57.664;39.686;2023-01-29T02:02:01;100391.06;;;-2.26;59.79
63343;BME280;49465;57.664;39.686;2023-01-29T02:04:50;100382.13;;;-1.93;58.77
63343;BME280;49465;57.664;39.686;2023-01-29T02:07:39;100373.91;;;-2.21;59.80
63343;BME280;49465;57.664;39.686;2023-01-29T02:10:25;100369.94;;;-1.77;58.92
63343;BME280;49465;57.664;39.686;2023-01-29T02:12:57;100360.75;;;-1.96;58.50
63343;BME280;49465;57.664;39.686;2023-01-29T02:15:24;100360.41;;;-1.69;58.46
63343;BME280;49465;57.664;39.686;2023-01-29T02:17:53;100350.53;;;-2.01;59.23
63343;BME280;49465;57.664;39.686;2023-01-29T02:20:25;100358.75;;;-2.47;60.26
63343;BME280;49465;57.664;39.686;2023-01-29T02:26:27;100337.53;;;-1.89;58.78
63343;BME280;49465;57.664;39.686;2023-01-29T02:29:07;100330.94;;;-2.10;58.75
63343;BME280;49465;57.664;39.686;2023-01-29T02:31:59;100317.03;;;-1.93;58.77
63343;BME280;49465;57.664;39.686;2023-01-29T02:34:35;100303.03;;;-2.39;59.19
63343;BME280;49465;57.664;39.686;2023-01-29T02:37:37;100306.84;;;-2.00;58.96
63343;BME280;49465;57.664;39.686;2023-01-29T02:40:42;100305.88;;;-1.30;56.70
63343;BME280;49465;57.664;39.686;2023-01-29T02:43:18;100295.66;;;-1.35;57.32
63343;BME280;49465;57.664;39.686;2023-01-29T02:46:21;100290.31;;;-1.80;58.48
63343;BME280;49465;57.664;39.686;2023-01-29T02:49:19;100285.28;;;-1.29;56.70
63343;BME280;49465;57.664;39.686;2023-01-29T02:55:08;100277.38;;;-1.18;56.13
63343;BME280;49465;57.664;39.686;2023-01-29T02:57:43;100271.53;;;-1.87;57.71
63343;BME280;49465;57.664;39.686;2023-01-29T03:00:19;100261.19;;;-1.25;56.45
63343;BME280;49465;57.664;39.686;2023-01-29T03:03:02;100276.41;;;-1.67;57.93
63343;BME280;49465;57.664;39.686;2023-01-29T03:06:09;100273.88;;;-1.68;58.08
63343;BME280;49465;57.664;39.686;2023-01-29T03:09:04;100268.81;;;-1.18;56.24
63343;BME280;49465;57.664;39.686;2023-01-29T03:12:01;100270.34;;;-1.07;56.20
63343;BME280;49465;57.664;39.686;2023-01-29T03:14:45;100257.47;;;-1.08;55.59
63343;BME280;49465;57.664;39.686;2023-01-29T03:17:36;100260.00;;;-1.04;55.52
63343;BME280;49465;57.664;39.686;2023-01-29T03:20:16;100244.81;;;-1.73;56.94
63343;BME280;49465;57.664;39.686;2023-01-29T03:22:55;100241.41;;;-1.20;56.13
63343;BME280;49465;57.664;39.686;2023-01-29T03:25:25;100238.16;;;-1.88;58.03
63343;BME280;49465;57.664;39.686;2023-01-29T03:28:14;100231.16;;;-1.23;56.26
63343;BME280;49465;57.664;39.686;2023-01-29T03:31:04;100233.00;;;-1.87;57.55
63343;BME280;49465;57.664;39.686;2023-01-29T03:34:16;100228.81;;;-1.38;56.69
63343;BME280;49465;57.664;39.686;2023-01-29T03:36:56;100222.09;;;-2.04;57.77
63343;BME280;49465;57.664;39.686;2023-01-29T03:39:29;100222.72;;;-1.32;56.92
63343;BME280;49465;57.664;39.686;2023-01-29T03:42:10;100217.66;;;-1.91;58.24
63343;BME280;49465;57.664;39.686;2023-01-29T03:47:50;100204.69;;;-1.29;56.29
63343;BME280;49465;57.664;39.686;2023-01-29T03:53:48;100185.53;;;-1.63;57.56
63343;BME280;49465;57.664;39.686;2023-01-29T03:56:33;100190.91;;;-1.78;58.23
63343;BME280;49465;57.664;39.686;2023-01-29T04:02:08;100203.69;;;-1.75;58.44
63343;BME280;49465;57.664;39.686;2023-01-29T04:04:49;100199.72;;;-1.96;58.34
63343;BME280;49465;57.664;39.686;2023-01-29T04:07:26;100197.75;;;-1.26;57.09
63343;BME280;49465;57.664;39.686;2023-01-29T04:10:08;100191.00;;;-1.86;57.89
63343;BME280;49465;57.664;39.686;2023-01-29T04:12:44;100187.16;;;-1.58;57.38
63343;BME280;49465;57.664;39.686;2023-01-29T04:15:20;100179.47;;;-2.17;59.49
63343;BME280;49465;57.664;39.686;2023-01-29T04:17:51;100179.38;;;-1.55;57.95
63343;BME280;49465;57.664;39.686;2023-01-29T04:20:22;100180.88;;;-1.96;58.23
63343;BME280;49465;57.664;39.686;2023-01-29T04:22:54;100179.63;;;-1.71;58.55
63343;BME280;49465;57.664;39.686;2023-01-29T04:25:27;100181.63;;;-1.35;57.37
63343;BME280;49465;57.664;39.686;2023-01-29T04:28:07;100173.84;;;-1.31;57.33
63343;BME280;49465;57.664;39.686;2023-01-29T04:31:07;100165.94;;;-1.73;58.50
63343;BME280;49465;57.664;39.686;2023-01-29T04:48:17;100136.25;;;-1.91;58.18
63343;BME280;49465;57.664;39.686;2023-01-29T04:50:56;100144.53;;;-1.73;58.63
63343;BME280;49465;57.664;39.686;2023-01-29T04:53:48;100147.94;;;-1.73;58.84
63343;BME280;49465;57.664;39.686;2023-01-29T04:59:13;100154.00;;;-1.26;57.50
63343;BME280;49465;57.664;39.686;2023-01-29T05:01:47;100143.84;;;-1.33;57.42
63343;BME280;49465;57.664;39.686;2023-01-29T05:04:17;100148.28;;;-1.93;59.32
63343;BME280;49465;57.664;39.686;2023-01-29T05:06:53;100140.69;;;-1.49;58.63
63343;BME280;49465;57.664;39.686;2023-01-29T05:09:26;100143.59;;;-1.68;58.40
63343;BME280;49465;57.664;39.686;2023-01-29T05:11:56;100144.50;;;-1.70;59.07
63343;BME280;49465;57.664;39.686;2023-01-29T05:14:24;100131.91;;;-1.87;59.60
63343;BME280;49465;57.664;39.686;2023-01-29T05:17:00;100130.69;;;-2.19;60.47
63343;BME280;49465;57.664;39.686;2023-01-29T05:19:31;100120.19;;;-1.51;58.54
63343;BME280;49465;57.664;39.686;2023-01-29T05:22:04;100126.75;;;-1.36;58.26
63343;BME280;49465;57.664;39.686;2023-01-29T05:24:31;100127.13;;;-2.12;59.99
63343;BME280;49465;57.664;39.686;2023-01-29T05:27:04;100125.34;;;-1.52;58.65
63343;BME280;49465;57.664;39.686;2023-01-29T05:29:51;100127.78;;;-1.97;59.90
63343;BME280;49465;57.664;39.686;2023-01-29T05:32:23;100124.19;;;-1.36;58.45
63343;BME280;49465;57.664;39.686;2023-01-29T05:34:49;100127.34;;;-1.22;58.14
63343;BME280;49465;57.664;39.686;2023-01-29T05:37:21;100119.88;;;-1.85;59.53
63343;BME280;49465;57.664;39.686;2023-01-29T05:39:50;100108.91;;;-1.45;58.67
63343;BME280;49465;57.664;39.686;2023-01-29T05:42:22;100105.69;;;-2.08;60.42
63343;BME280;49465;57.664;39.686;2023-01-29T05:44:51;100100.13;;;-1.82;59.57
63343;BME280;49465;57.664;39.686;2023-01-29T05:47:29;100099.88;;;-1.68;59.14
63343;BME280;49465;57.664;39.686;2023-01-29T05:49:58;100099.00;;;-1.67;59.69
63343;BME280;49465;57.664;39.686;2023-01-29T05:52:27;100095.22;;;-1.97;59.57
63343;BME280;49465;57.664;39.686;2023-01-29T05:54:55;100102.13;;;-2.01;60.36
63343;BME280;49465;57.664;39.686;2023-01-29T05:57:25;100096.06;;;-1.96;59.77
63343;BME280;49465;57.664;39.686;2023-01-29T05:59:51;100095.91;;;-1.84;59.24
63343;BME280;49465;57.664;39.686;2023-01-29T06:02:17;100091.16;;;-1.59;59.35
63343;BME280;49465;57.664;39.686;2023-01-29T06:04:49;100092.88;;;-2.11;60.31
63343;BME280;49465;57.664;39.686;2023-01-29T06:07:18;100086.13;;;-1.65;59.80
63343;BME280;49465;57.664;39.686;2023-01-29T06:09:44;100083.03;;;-1.84;59.35
63343;BME280;49465;57.664;39.686;2023-01-29T06:12:16;100080.66;;;-1.96;60.42
63343;BME280;49465;57.664;39.686;2023-01-29T06:14:42;100077.22;;;-1.95;59.71
63343;BME280;49465;57.664;39.686;2023-01-29T06:17:09;100081.47;;;-1.94;60.15
63343;BME280;49465;57.664;39.686;2023-01-29T06:19:41;100078.22;;;-1.54;58.89
63343;BME280;49465;57.664;39.686;2023-01-29T06:22:10;100078.66;;;-1.79;59.44
63343;BME280;49465;57.664;39.686;2023-01-29T06:24:44;100068.38;;;-1.79;59.53
63343;BME280;49465;57.664;39.686;2023-01-29T06:27:14;100061.03;;;-1.07;58.09
63343;BME280;49465;57.664;39.686;2023-01-29T06:29:43;100070.94;;;-1.79;60.01
63343;BME280;49465;57.664;39.686;2023-01-29T06:32:14;100061.31;;;-1.68;59.39
63343;BME280;49465;57.664;39.686;2023-01-29T06:34:41;100058.22;;;-1.88;60.19
63343;BME280;49465;57.664;39.686;2023-01-29T06:37:10;100056.47;;;-1.86;60.08
63343;BME280;49465;57.664;39.686;2023-01-29T06:39:39;100059.72;;;-1.75;60.42
63343;BME280;49465;57.664;39.686;2023-01-29T06:42:12;100060.22;;;-2.04;60.54
63343;BME280;49465;57.664;39.686;2023-01-29T06:44:40;100049.81;;;-1.96;60.11
63343;BME280;49465;57.664;39.686;2023-01-29T06:47:09;100050.59;;;-1.91;59.69
63343;BME280;49465;57.664;39.686;2023-01-29T06:49:36;100045.31;;;-1.84;59.27
63343;BME280;49465;57.664;39.686;2023-01-29T06:52:03;100052.84;;;-1.73;59.18
63343;BME280;49465;57.664;39.686;2023-01-29T06:54:29;100048.63;;;-1.77;59.96
63343;BME280;49465;57.664;39.686;2023-01-29T06:56:55;100056.34;;;-1.77;59.83
63343;BME280;49465;57.664;39.686;2023-01-29T06:59:22;100053.91;;;-1.38;59.31
63343;BME280;49465;57.664;39.686;2023-01-29T07:01:48;100054.91;;;-1.93;60.20
63343;BME280;49465;57.664;39.686;2023-01-29T07:04:14;100053.88;;;-1.83;59.76
63343;BME280;49465;57.664;39.686;2023-01-29T07:06:43;100061.16;;;-1.13;58.81
63343;BME280;49465;57.664;39.686;2023-01-29T07:09:13;100054.06;;;-1.02;58.20
63343;BME280;49465;57.664;39.686;2023-01-29T07:11:42;100044.19;;;-1.69;59.50
63343;BME280;49465;57.664;39.686;2023-01-29T07:14:09;100047.59;;;-1.22;58.88
63343;BME280;49465;57.664;39.686;2023-01-29T07:16:35;100056.28;;;-1.72;59.77
63343;BME280;49465;57.664;39.686;2023-01-29T07:19:02;100052.03;;;-1.76;59.78
63343;BME280;49465;57.664;39.686;2023-01-29T07:21:32;100052.03;;;-1.30;59.14
63343;BME280;49465;57.664;39.686;2023-01-29T07:23:58;100054.56;;;-1.73;59.27
63343;BME280;49465;57.664;39.686;2023-01-29T07:26:24;100057.97;;;-1.73;59.51
63343;BME280;49465;57.664;39.686;2023-01-29T07:28:53;100056.22;;;-1.71;59.10
63343;BME280;49465;57.664;39.686;2023-01-29T07:31:19;100057.94;;;-1.23;58.45
63343;BME280;49465;57.664;39.686;2023-01-29T07:33:49;100055.50;;;-1.77;59.40
63343;BME280;49465;57.664;39.686;2023-01-29T07:36:16;100054.13;;;-1.97;60.29
63343;BME280;49465;57.664;39.686;2023-01-29T07:38:49;100052.34;;;-1.93;60.57
63343;BME280;49465;57.664;39.686;2023-01-29T07:41:19;100048.16;;;-2.01;60.28
63343;BME280;49465;57.664;39.686;2023-01-29T07:43:48;100050.03;;;-2.09;60.60
63343;BME280;49465;57.664;39.686;2023-01-29T07:46:17;100059.16;;;-1.91;60.92
63343;BME280;49465;57.664;39.686;2023-01-29T07:48:50;100053.41;;;-2.07;60.66
63343;BME280;49465;57.664;39.686;2023-01-29T07:51:17;100052.03;;;-1.76;59.93
63343;BME280;49465;57.664;39.686;2023-01-29T07:53:49;100054.06;;;-1.94;60.55
63343;BME280;49465;57.664;39.686;2023-01-29T07:56:18;100061.47;;;-1.75;59.80
63343;BME280;49465;57.664;39.686;2023-01-29T07:58:53;100056.72;;;-1.50;59.20
63343;BME280;49465;57.664;39.686;2023-01-29T08:01:28;100057.13;;;-1.73;59.45
63343;BME280;49465;57.664;39.686;2023-01-29T08:04:00;100052.91;;;-1.29;58.98
63343;BME280;49465;57.664;39.686;2023-01-29T08:06:34;100063.75;;;-1.60;59.05
63343;BME280;49465;57.664;39.686;2023-01-29T08:09:06;100058.03;;;-1.76;59.46
63343;BME280;49465;57.664;39.686;2023-01-29T08:11:36;100049.59;;;-1.37;58.83
63343;BME280;49465;57.664;39.686;2023-01-29T08:14:07;100051.91;;;-1.69;59.41
63343;BME280;49465;57.664;39.686;2023-01-29T08:16:37;100051.63;;;-1.10;58.26
63343;BME280;49465;57.664;39.686;2023-01-29T08:19:06;100045.53;;;-1.49;58.89
63343;BME280;49465;57.664;39.686;2023-01-29T08:21:35;100047.03;;;-0.94;58.15
63343;BME280;49465;57.664;39.686;2023-01-29T08:24:01;100048.19;;;-1.52;58.85
63343;BME280;49465;57.664;39.686;2023-01-29T08:26:31;100050.09;;;-1.64;58.94
63343;BME280;49465;57.664;39.686;2023-01-29T08:29:03;100051.66;;;-1.55;59.07
63343;BME280;49465;57.664;39.686;2023-01-29T08:31:39;100049.66;;;-1.39;58.72
63343;BME280;49465;57.664;39.686;2023-01-29T08:34:09;100042.13;;;-1.48;59.18
63343;BME280;49465;57.664;39.686;2023-01-29T08:36:38;100038.44;;;-0.94;58.23
63343;BME280;49465;57.664;39.686;2023-01-29T08:39:10;100022.50;;;-1.54;59.10
63343;BME280;49465;57.664;39.686;2023-01-29T08:41:39;100034.44;;;-1.51;59.09
63343;BME280;49465;57.664;39.686;2023-01-29T08:44:11;100029.94;;;-1.38;58.86
63343;BME280;49465;57.664;39.686;2023-01-29T08:46:40;100022.09;;;-1.34;59.24
63343;BME280;49465;57.664;39.686;2023-01-29T08:49:23;100017.22;;;-1.46;59.36
63343;BME280;49465;57.664;39.686;2023-01-29T08:54:50;100014.78;;;-1.54;58.57
63343;BME280;49465;57.664;39.686;2023-01-29T08:57:21;100016.53;;;-1.54;58.96
63343;BME280;49465;57.664;39.686;2023-01-29T08:59:52;100011.22;;;-1.05;58.59
63343;BME280;49465;57.664;39.686;2023-01-29T09:02:21;100010.94;;;-0.92;58.41
63343;BME280;49465;57.664;39.686;2023-01-29T09:04:52;99996.25;;;-0.87;58.24
63343;BME280;49465;57.664;39.686;2023-01-29T09:07:23;100003.25;;;-1.34;58.63
63343;BME280;49465;57.664;39.686;2023-01-29T09:09:54;99994.00;;;-1.43;58.98
63343;BME280;49465;57.664;39.686;2023-01-29T09:12:20;99991.78;;;-0.79;58.33
63343;BME280;49465;57.664;39.686;2023-01-29T09:14:50;99982.44;;;-0.83;58.25
63343;BME280;49465;57.664;39.686;2023-01-29T09:17:28;99979.69;;;-1.14;58.80
63343;BME280;49465;57.664;39.686;2023-01-29T09:19:58;99977.59;;;-1.37;58.85
63343;BME280;49465;57.664;39.686;2023-01-29T09:22:31;99987.59;;;-1.24;58.69
63343;BME280;49465;57.664;39.686;2023-01-29T09:25:00;99983.22;;;-1.18;58.93
63343;BME280;49465;57.664;39.686;2023-01-29T09:27:36;99982.94;;;-1.06;59.13
63343;BME280;49465;57.664;39.686;2023-01-29T09:30:07;99972.31;;;-0.91;58.58
63343;BME280;49465;57.664;39.686;2023-01-29T09:32:37;99972.28;;;-1.30;58.86
63343;BME280;49465;57.664;39.686;2023-01-29T09:35:10;99968.13;;;-1.35;59.08
63343;BME280;49465;57.664;39.686;2023-01-29T09:37:39;99974.81;;;-1.27;59.07
63343;BME280;49465;57.664;39.686;2023-01-29T09:40:34;99967.88;;;-1.23;58.16
63343;BME280;49465;57.664;39.686;2023-01-29T09:43:12;99965.00;;;-1.09;58.66
63343;BME280;49465;57.664;39.686;2023-01-29T09:46:04;99963.28;;;-0.71;58.38
63343;BME280;49465;57.664;39.686;2023-01-29T09:48:37;99955.44;;;-1.04;58.38
63343;BME280;49465;57.664;39.686;2023-01-29T09:51:26;99944.94;;;-0.93;58.17
63343;BME280;49465;57.664;39.686;2023-01-29T09:57:01;99926.94;;;-0.59;57.53
63343;BME280;49465;57.664;39.686;2023-01-29T09:59:33;99919.63;;;-0.74;57.39
63343;BME280;49465;57.664;39.686;2023-01-29T10:08:16;99900.91;;;-0.47;57.19
63343;BME280;49465;57.664;39.686;2023-01-29T10:23:21;99889.72;;;-0.13;57.56
63343;BME280;49465;57.664;39.686;2023-01-29T10:25:55;99895.97;;;-0.22;58.06
63343;BME280;49465;57.664;39.686;2023-01-29T10:31:18;99892.06;;;-0.36;58.21
63343;BME280;49465;57.664;39.686;2023-01-29T10:33:54;99891.38;;;-0.43;58.00
63343;BME280;49465;57.664;39.686;2023-01-29T10:36:37;99880.78;;;-0.32;57.55
63343;BME280;49465;57.664;39.686;2023-01-29T10:39:25;99880.38;;;-0.50;58.22
63343;BME280;49465;57.664;39.686;2023-01-29T10:50:17;99858.16;;;-0.21;57.71
63343;BME280;49465;57.664;39.686;2023-01-29T10:59:00;99845.44;;;-0.27;57.81
63343;BME280;49465;57.664;39.686;2023-01-29T11:01:36;99846.75;;;-0.45;58.14
63343;BME280;49465;57.664;39.686;2023-01-29T11:04:14;99850.47;;;-0.55;57.95
63343;BME280;49465;57.664;39.686;2023-01-29T11:06:46;99849.22;;;-0.41;57.61
63343;BME280;49465;57.664;39.686;2023-01-29T11:09:43;99853.84;;;-0.21;58.05
63343;BME280;49465;57.664;39.686;2023-01-29T11:12:17;99841.56;;;0.19;57.23
63343;BME280;49465;57.664;39.686;2023-01-29T11:14:54;99841.72;;;-0.17;57.40
63343;BME280;49465;57.664;39.686;2023-01-29T11:17:28;99836.03;;;-0.30;57.28
63343;BME280;49465;57.664;39.686;2023-01-29T11:20:04;99838.59;;;-0.28;57.54
63343;BME280;49465;57.664;39.686;2023-01-29T11:22:37;99829.56;;;-0.43;57.78
63343;BME280;49465;57.664;39.686;2023-01-29T11:25:26;99827.00;;;-0.45;57.84
63343;BME280;49465;57.664;39.686;2023-01-29T11:27:57;99827.34;;;0.35;56.83
63343;BME280;49465;57.664;39.686;2023-01-29T11:30:40;99820.50;;;0.05;57.16
63343;BME280;49465;57.664;39.686;2023-01-29T11:35:35;99816.44;;;-0.35;57.26
63343;BME280;49465;57.664;39.686;2023-01-29T11:38:27;99810.44;;;-0.05;57.80
63343;BME280;49465;57.664;39.686;2023-01-29T11:41:17;99801.41;;;0.12;57.12
63343;BME280;49465;57.664;39.686;2023-01-29T11:43:47;99799.78;;;-0.24;57.22
63343;BME280;49465;57.664;39.686;2023-01-29T11:46:17;99808.25;;;-0.18;57.24
63343;BME280;49465;57.664;39.686;2023-01-29T11:48:48;99797.88;;;-0.15;57.39
63343;BME280;49465;57.664;39.686;2023-01-29T11:51:26;99802.03;;;-0.10;57.57
63343;BME280;49465;57.664;39.686;2023-01-29T11:54:15;99802.28;;;0.11;57.22
63343;BME280;49465;57.664;39.686;2023-01-29T11:56:59;99796.88;;;-0.10;57.69
63343;BME280;49465;57.664;39.686;2023-01-29T11:59:52;99793.19;;;-0.03;57.65
63343;BME280;49465;57.664;39.686;2023-01-29T12:05:06;99789.78;;;-0.03;57.74
63343;BME280;49465;57.664;39.686;2023-01-29T12:07:52;99794.78;;;0.02;57.78
63343;BME280;49465;57.664;39.686;2023-01-29T12:10:39;99788.50;;;0.12;57.46
63343;BME280;49465;57.664;39.686;2023-01-29T12:16:12;99780.22;;;0.30;57.84
63343;BME280;49465;57.664;39.686;2023-01-29T12:18:54;99775.03;;;0.02;58.03
63343;BME280;49465;57.664;39.686;2023-01-29T12:21:41;99780.69;;;0.13;58.05
63343;BME280;49465;57.664;39.686;2023-01-29T12:24:35;99777.91;;;-0.09;57.94
63343;BME280;49465;57.664;39.686;2023-01-29T12:27:18;99781.88;;;0.03;58.12
63343;BME280;49465;57.664;39.686;2023-01-29T12:30:24;99784.28;;;0.66;56.48
63343;BME280;49465;57.664;39.686;2023-01-29T12:33:15;99782.13;;;0.24;57.54
63343;BME280;49465;57.664;39.686;2023-01-29T12:36:48;99781.00;;;0.32;57.59
63343;BME280;49465;57.664;39.686;2023-01-29T12:39:14;99773.19;;;0.06;57.60
63343;BME280;49465;57.664;39.686;2023-01-29T12:41:56;99773.88;;;0.69;56.33
63343;BME280;49465;57.664;39.686;2023-01-29T12:49:56;99781.09;;;-0.01;58.09
63343;BME280;49465;57.664;39.686;2023-01-29T12:55:17;99781.94;;;0.58;56.70
63343;BME280;49465;57.664;39.686;2023-01-29T12:58:00;99776.06;;;0.25;57.72
63343;BME280;49465;57.664;39.686;2023-01-29T13:00:34;99775.88;;;0.03;57.84
63343;BME280;49465;57.664;39.686;2023-01-29T13:10:56;99774.00;;;-0.22;57.87
63343;BME280;49465;57.664;39.686;2023-01-29T13:13:32;99778.84;;;-0.11;58.10
63343;BME280;49465;57.664;39.686;2023-01-29T13:16:08;99778.63;;;-0.04;57.96
63343;BME280;49465;57.664;39.686;2023-01-29T13:19:19;99785.94;;;0.12;58.01
63343;BME280;49465;57.664;39.686;2023-01-29T13:21:42;99779.94;;;-0.20;58.18
63343;BME280;49465;57.664;39.686;2023-01-29T13:24:38;99780.59;;;0.18;58.10
63343;BME280;49465;57.664;39.686;2023-01-29T13:27:34;99793.91;;;0.03;57.92
63343;BME280;49465;57.664;39.686;2023-01-29T13:30:03;99787.84;;;-0.26;57.88
63343;BME280;49465;57.664;39.686;2023-01-29T13:32:31;99800.69;;;-0.25;58.24
63343;BME280;49465;57.664;39.686;2023-01-29T13:35:11;99800.44;;;-0.15;58.36
63343;BME280;49465;57.664;39.686;2023-01-29T13:37:52;99797.66;;;0.50;57.17
63343;BME280;49465;57.664;39.686;2023-01-29T13:40:26;99785.81;;;-0.15;58.21
63343;BME280;49465;57.664;39.686;2023-01-29T13:42:55;99789.38;;;-0.19;58.15
63343;BME280;49465;57.664;39.686;2023-01-29T13:45:48;99794.09;;;-0.04;58.48
63343;BME280;49465;57.664;39.686;2023-01-29T13:48:33;99792.94;;;0.07;58.27
63343;BME280;49465;57.664;39.686;2023-01-29T13:51:16;99789.75;;;-0.02;58.16
63343;BME280;49465;57.664;39.686;2023-01-29T13:54:02;99791.78;;;-0.13;58.73
63343;BME280;49465;57.664;39.686;2023-01-29T13:57:00;99794.75;;;0.03;58.23
63343;BME280;49465;57.664;39.686;2023-01-29T13:59:52;99784.41;;;0.05;58.44
63343;BME280;49465;57.664;39.686;2023-01-29T14:02:25;99784.06;;;-0.13;57.91
63343;BME280;49465;57.664;39.686;2023-01-29T14:10:40;99777.16;;;-0.12;58.32
63343;BME280;49465;57.664;39.686;2023-01-29T14:18:43;99786.44;;;-0.07;58.43
63343;BME280;49465;57.664;39.686;2023-01-29T14:21:26;99784.91;;;0.46;57.02
63343;BME280;49465;57.664;39.686;2023-01-29T14:24:18;99780.66;;;0.15;57.89
63343;BME280;49465;57.664;39.686;2023-01-29T14:26:56;99789.63;;;0.02;58.19
63343;BME280;49465;57.664;39.686;2023-01-29T14:29:30;99788.84;;;0.57;56.70
63343;BME280;49465;57.664;39.686;2023-01-29T14:35:09;99788.84;;;-0.01;58.58
63343;BME280;49465;57.664;39.686;2023-01-29T14:38:05;99790.50;;;0.02;58.24
63343;BME280;49465;57.664;39.686;2023-01-29T14:40:36;99784.19;;;-0.17;58.62
63343;BME280;49465;57.664;39.686;2023-01-29T14:43:19;99776.97;;;-0.06;58.46
63343;BME280;49465;57.664;39.686;2023-01-29T14:45:52;99771.41;;;-0.22;59.21
63343;BME280;49465;57.664;39.686;2023-01-29T14:48:50;99758.91;;;-0.05;58.42
63343;BME280;49465;57.664;39.686;2023-01-29T14:51:20;99754.16;;;-0.18;58.02
63343;BME280;49465;57.664;39.686;2023-01-29T14:54:19;99753.56;;;0.02;58.68
63343;BME280;49465;57.664;39.686;2023-01-29T14:57:04;99749.84;;;0.12;58.47
63343;BME280;49465;57.664;39.686;2023-01-29T15:00:04;99743.84;;;0.10;58.44
63343;BME280;49465;57.664;39.686;2023-01-29T15:02:42;99745.66;;;-0.22;58.66
63343;BME280;49465;57.664;39.686;2023-01-29T15:05:28;99748.94;;;-0.17;58.72
63343;BME280;49465;57.664;39.686;2023-01-29T15:10:47;99746.44;;;-0.20;58.38
63343;BME280;49465;57.664;39.686;2023-01-29T15:13:49;99743.47;;;-0.06;58.95
63343;BME280;49465;57.664;39.686;2023-01-29T15:16:44;99742.72;;;0.47;57.29
63343;BME280;49465;57.664;39.686;2023-01-29T15:19:26;99746.63;;;0.04;57.94
63343;BME280;49465;57.664;39.686;2023-01-29T15:22:24;99743.59;;;0.19;58.00
63343;BME280;49465;57.664;39.686;2023-01-29T15:25:12;99747.19;;;0.13;58.41
63343;BME280;49465;57.664;39.686;2023-01-29T15:27:57;99747.63;;;-0.02;58.81